Flight Track Log - Related Links

Times and Time Zones

All times are in EDT time to prevent confusion due to time zone crossing. See the JZA8976 flight status page for this flight to view local times or setup timezone preferences in your user account.

Time Position Orientation Groundspeed Altitude Reporting Facility
EDT Latitude Longitude Course Direction KTS MPH feet Rate Location/Type
Sat 08:37:55 AM 45.2833 -75.6833 98° East 140 161 1,800  Level Montreal Center
Sat 08:38:55 AM 45.2500 -75.7333 227° Southwest 160 184 3,000 1,300 Climbing Montreal Center
Sat 08:39:55 AM 45.2167 -75.7000 145° Southeast 170 196 4,400 1,000 Climbing Montreal Center
Sat 08:40:55 AM 45.1667 -75.6833 167° South 190 219 5,000 950 Climbing Montreal Center
Sat 08:41:55 AM 45.1500 -75.6167 109° East 190 219 6,300 1,250 Climbing Montreal Center
Sat 08:42:00 AM 45.2667 -75.1713 90° East  Level FlightAware Approximate
Sat 08:42:55 AM 45.1500 -75.5333 90° East 180 207 7,500  Level Montreal Center
Sat 08:43:00 AM 45.2641 -75.0576 98° East  Level FlightAware Approximate
Sat 08:43:55 AM 45.1500 -75.4667 90° East 190 219 8,600  Level Montreal Center
Sat 08:44:55 AM 45.1500 -75.4000 90° East 180 207 9,700 1,100 Climbing Montreal Center
Sat 08:45:55 AM 45.1500 -75.3333 90° East 190 219 10,800 650 Climbing Montreal Center
Sat 08:46:55 AM 45.1667 -75.2333 77° East 210 242 11,000 100 Climbing Montreal Center
Sat 08:47:55 AM 45.1667 -75.1333 90° East 230 265 11,000  Level Montreal Center
Sat 08:48:55 AM 45.1667 -75.0333 90° East 240 276 11,000  Level Montreal Center
Sat 08:49:55 AM 45.1667 -74.9500 90° East 240 276 11,000  Level Montreal Center
Sat 08:50:55 AM 45.1833 -74.8500 77° East 250 288 11,000  Level Montreal Center
Sat 08:51:55 AM 45.1833 -74.7500 90° East 250 288 11,000  Level Montreal Center
Sat 08:52:55 AM 45.1833 -74.6667 90° East 250 288 11,000  Level Montreal Center
Sat 08:53:55 AM 45.2000 -74.5667 77° East 240 276 11,000  Level Montreal Center
Sat 08:54:55 AM 45.2000 -74.4667 90° East 250 288 11,000 -150 Level Montreal Center
Sat 08:55:55 AM 45.2167 -74.3833 74° East 240 276 10,700 -347 Descending Montreal Center
Sat 08:56:56 AM 45.2667 -74.3000 50° Northeast 250 288 10,300 -397 Descending Montreal Center
Sat 08:57:56 AM 45.3000 -74.2333 55° Northeast 250 288 9,900 -500 Descending Montreal Center
Sat 08:58:56 AM 45.3333 -74.1333 65° Northeast 250 288 9,300 -700 Descending Montreal Center
Sat 08:59:56 AM 45.3500 -74.0333 77° East 260 299 8,500 -650 Descending Montreal Center
Sat 09:00:56 AM 45.4000 -73.9833 35° Northeast 250 288 8,000 -300 Descending Montreal Center
Sat 09:01:56 AM 45.4500 -73.9167 43° Northeast 230 265 7,900 -504 Descending Montreal Center
Sat 09:02:55 AM 45.5000 -73.8333 49° Northeast 250 288 7,000 -1,008 Descending Montreal Center
Sat 09:03:55 AM 45.5500 -73.7667 43° Northeast 240 276 5,900 -1,250 Descending Montreal Center
Sat 09:04:55 AM 45.5833 -73.7000 54° Northeast 230 265 4,500 -1,450 Descending Montreal Center
Sat 09:05:55 AM 45.5833 -73.6167 90° East 220 253 3,000 -1,150 Descending Montreal Center
Sat 09:06:55 AM 45.5333 -73.6167 180° South 200 230 2,200 -800 Descending Montreal Center
Sat 09:07:55 AM 45.5000 -73.6667 226° Southwest 160 184 1,400 -900 Descending Montreal Center
Sat 09:08:55 AM 45.4667 -73.7000 215° Southwest 120 138 400 -650 Descending Montreal Center
Sat 09:09:55 AM 45.4500 -73.7167 215° Southwest 60 69 100 -150 Descending Montreal Center
Sat 09:10:55 AM 45.4500 -73.7500 270° West 20 23 100  Level Montreal Center

Login

Don't have an account? Register now (free) for customized features, flight alerts, and more!